Time;durP1;ratioP1;P1;durP2;ratioP2;P2;SDS_P1;SDS_P2;PMS_P1;PMS_P2;Temp;Humidity;BMP_temperature;BMP_pressure;BME280_temperature;BME280_humidity;BME280_pressure;Samples;Min_cycle;Max_cycle;Signal;HPM_P1;HPM_P2
2022/06/14 00:00:58;;;;;;;14.35;4.07;;;12.50;99.90;;;;;;5037962;28;20063;-86
2022/06/14 00:03:29;;;;;;;9.30;3.67;;;12.40;99.90;;;;;;5038372;28;20119;-85
2022/06/14 00:06:01;;;;;;;12.77;3.70;;;12.30;99.90;;;;;;5055468;28;20072;-86
2022/06/14 00:08:28;;;;;;;8.48;3.58;;;12.20;99.90;;;;;;5038355;28;20536;-85
2022/06/14 00:10:57;;;;;;;13.52;3.58;;;12.10;99.90;;;;;;5055138;28;20021;-85
2022/06/14 00:13:23;;;;;;;6.55;3.40;;;12.00;99.90;;;;;;5044146;28;20013;-85
2022/06/14 00:15:50;;;;;;;7.63;3.78;;;12.00;99.90;;;;;;5047009;28;20036;-87
2022/06/14 00:18:23;;;;;;;6.25;3.67;;;11.90;99.90;;;;;;5046949;28;20656;-85
2022/06/14 00:20:49;;;;;;;6.10;3.28;;;11.80;99.90;;;;;;5045888;28;20036;-84
2022/06/14 00:23:16;;;;;;;8.77;3.63;;;11.60;99.90;;;;;;5045286;28;20036;-84
2022/06/14 00:25:46;;;;;;;12.55;4.07;;;11.50;99.90;;;;;;5044365;28;20067;-84
2022/06/14 00:28:16;;;;;;;9.93;3.60;;;11.50;99.90;;;;;;5044910;28;20583;-87
2022/06/14 00:30:50;;;;;;;15.93;4.38;;;11.40;99.90;;;;;;5043238;28;20091;-86
2022/06/14 00:33:16;;;;;;;9.45;3.72;;;11.30;99.90;;;;;;5043932;28;20405;-84
2022/06/14 00:35:42;;;;;;;9.00;3.53;;;11.30;99.90;;;;;;5071176;28;20029;-87
2022/06/14 00:38:13;;;;;;;10.23;3.47;;;11.20;99.90;;;;;;5038346;28;20039;-85
2022/06/14 00:40:41;;;;;;;8.10;3.45;;;11.20;99.90;;;;;;5039045;28;20077;-84
2022/06/14 00:43:15;;;;;;;6.30;3.70;;;11.10;99.90;;;;;;5055851;28;20090;-84
2022/06/14 00:45:41;;;;;;;6.13;3.60;;;11.00;99.90;;;;;;5038761;28;20025;-84
2022/06/14 00:48:33;;;;;;;10.60;3.70;;;10.90;99.90;;;;;;5055922;28;20048;-86
2022/06/14 00:51:06;;;;;;;10.23;4.20;;;10.90;99.90;;;;;;5057054;28;20039;-84
2022/06/14 00:53:58;;;;;;;9.05;3.65;;;10.80;99.90;;;;;;5056491;28;20075;-84
2022/06/14 00:56:39;;;;;;;9.23;3.83;;;10.70;99.90;;;;;;5034411;28;20041;-84
2022/06/14 00:59:11;;;;;;;16.58;3.85;;;10.70;99.90;;;;;;5057570;28;20507;-86
2022/06/14 01:01:41;;;;;;;6.53;3.10;;;10.70;99.90;;;;;;5040778;28;20047;-85
2022/06/14 01:04:12;;;;;;;6.00;3.22;;;10.70;99.90;;;;;;5039966;28;20839;-84
2022/06/14 01:06:55;;;;;;;5.53;3.13;;;10.60;99.90;;;;;;5055595;28;20100;-84
2022/06/14 01:09:25;;;;;;;5.00;3.17;;;10.60;99.90;;;;;;5038973;28;20037;-84
2022/06/14 01:11:57;;;;;;;8.70;3.80;;;10.60;99.90;;;;;;5055036;28;20033;-85
2022/06/14 01:14:33;;;;;;;7.55;3.50;;;10.60;99.90;;;;;;5038349;28;20500;-84
2022/06/14 01:16:59;;;;;;;6.18;3.05;;;10.50;99.90;;;;;;5039481;28;20060;-84
2022/06/14 01:19:26;;;;;;;7.93;3.92;;;10.40;99.90;;;;;;5039984;28;20048;-84
2022/06/14 01:22:07;;;;;;;16.02;3.22;;;10.40;99.90;;;;;;5057320;28;20041;-84
2022/06/14 01:24:35;;;;;;;10.38;3.70;;;10.30;99.90;;;;;;5040589;28;20100;-84
2022/06/14 01:27:08;;;;;;;8.60;3.60;;;10.10;99.90;;;;;;5039806;28;20088;-85
2022/06/14 01:29:37;;;;;;;9.32;3.70;;;10.00;99.90;;;;;;5039203;28;20055;-84
2022/06/14 01:32:08;;;;;;;5.82;3.75;;;10.00;99.90;;;;;;5058772;28;20029;-86
2022/06/14 01:34:37;;;;;;;8.90;3.90;;;9.90;99.90;;;;;;5039666;28;20025;-84
2022/06/14 01:37:04;;;;;;;7.10;3.22;;;9.90;99.90;;;;;;5038588;28;20381;-84
2022/06/14 01:39:30;;;;;;;6.75;3.55;;;9.80;99.90;;;;;;5054098;28;20071;-84
2022/06/14 01:42:18;;;;;;;7.63;3.10;;;9.80;99.90;;;;;;5039016;28;20052;-85
2022/06/14 01:45:07;;;;;;;6.47;3.33;;;9.80;99.90;;;;;;5039405;28;20106;-84
2022/06/14 01:47:42;;;;;;;6.65;3.42;;;9.70;99.90;;;;;;5039082;28;20420;-85
2022/06/14 01:53:25;;;;;;;5.90;3.10;;;9.70;99.90;;;;;;5056075;28;20043;-83
2022/06/14 01:56:10;;;;;;;5.57;3.47;;;9.70;99.90;;;;;;5058307;28;20131;-84
2022/06/14 01:58:59;;;;;;;6.80;3.35;;;9.60;99.90;;;;;;5058438;28;20032;-86
2022/06/14 02:01:34;;;;;;;5.97;3.28;;;9.60;99.90;;;;;;5027763;28;20477;-84
2022/06/14 02:07:12;;;;;;;10.13;3.22;;;9.40;99.90;;;;;;5057189;28;20119;-84
2022/06/14 02:09:59;;;;;;;7.38;3.72;;;9.40;99.90;;;;;;5040715;28;20051;-86
2022/06/14 02:12:37;;;;;;;7.55;3.65;;;9.30;99.90;;;;;;5057619;28;20060;-84
2022/06/14 02:15:07;;;;;;;7.45;3.58;;;9.30;99.90;;;;;;5057473;28;20037;-85
2022/06/14 02:18:00;;;;;;;7.97;3.37;;;9.30;99.90;;;;;;5057996;28;20032;-84
2022/06/14 02:20:33;;;;;;;8.13;3.90;;;9.30;99.90;;;;;;5056274;28;20052;-84
2022/06/14 02:23:06;;;;;;;6.88;3.83;;;9.20;99.90;;;;;;5056098;28;20612;-84
2022/06/14 02:25:57;;;;;;;6.68;3.75;;;9.20;99.90;;;;;;5039995;28;20025;-84
2022/06/14 02:28:33;;;;;;;7.95;3.58;;;9.10;99.90;;;;;;5040204;28;20032;-83
2022/06/14 02:31:23;;;;;;;8.27;3.92;;;9.10;99.90;;;;;;5038954;28;20033;-84
2022/06/14 02:34:00;;;;;;;8.65;4.05;;;9.10;99.90;;;;;;5039494;28;20374;-84
2022/06/14 02:36:40;;;;;;;7.85;4.15;;;9.10;99.90;;;;;;5040329;28;20060;-85
2022/06/14 02:39:21;;;;;;;7.60;4.20;;;9.10;99.90;;;;;;5056397;28;20402;-84
2022/06/14 02:42:01;;;;;;;9.30;5.00;;;9.00;99.90;;;;;;5057405;28;20029;-86
2022/06/14 02:44:42;;;;;;;14.48;5.20;;;9.30;99.90;;;;;;5057257;28;20032;-84
2022/06/14 02:47:41;;;;;;;13.05;5.22;;;9.40;99.90;;;;;;5045185;28;20028;-84
2022/06/14 02:50:20;;;;;;;12.15;5.47;;;9.60;99.90;;;;;;5033628;28;20033;-84
2022/06/14 02:52:58;;;;;;;10.77;5.88;;;9.60;99.90;;;;;;5043871;28;20037;-85
2022/06/14 02:55:49;;;;;;;12.85;5.68;;;9.70;99.90;;;;;;5044085;28;20040;-85
2022/06/14 02:58:27;;;;;;;11.73;5.88;;;9.80;99.90;;;;;;5043897;28;20043;-85
2022/06/14 03:01:04;;;;;;;13.77;5.22;;;9.80;99.90;;;;;;5070745;28;20028;-87
2022/06/14 03:04:06;;;;;;;12.38;6.35;;;9.70;99.90;;;;;;5055389;28;20047;-86
2022/06/14 03:06:44;;;;;;;13.25;6.50;;;9.80;99.90;;;;;;5050642;28;20029;-84
2022/06/14 03:09:17;;;;;;;11.27;6.15;;;9.80;99.90;;;;;;5052092;28;20091;-84
2022/06/14 03:12:09;;;;;;;11.52;6.15;;;9.90;99.90;;;;;;5052391;28;20182;-84
2022/06/14 03:14:52;;;;;;;13.85;5.47;;;9.90;99.90;;;;;;5036080;28;20079;-85
2022/06/14 03:17:46;;;;;;;10.75;5.35;;;9.90;99.90;;;;;;5037130;28;20029;-83
2022/06/14 03:20:40;;;;;;;10.82;5.80;;;9.90;99.90;;;;;;5043092;28;20029;-83
2022/06/14 03:23:40;;;;;;;14.85;7.07;;;9.90;99.90;;;;;;5052962;28;20060;-84
2022/06/14 03:26:18;;;;;;;12.07;5.50;;;9.90;99.90;;;;;;5036796;28;20070;-82
2022/06/14 03:29:01;;;;;;;11.38;5.63;;;9.90;99.90;;;;;;5037419;28;20032;-84
2022/06/14 03:31:41;;;;;;;10.88;6.35;;;9.80;99.90;;;;;;5037125;28;20024;-83
2022/06/14 03:34:28;;;;;;;11.90;5.47;;;9.80;99.90;;;;;;5055418;28;20029;-84
2022/06/14 03:36:57;;;;;;;12.25;5.68;;;9.80;99.90;;;;;;5054059;28;20025;-85
2022/06/14 03:39:28;;;;;;;12.48;5.85;;;9.70;99.90;;;;;;5054642;28;20044;-84
2022/06/14 03:41:55;;;;;;;12.68;6.00;;;9.70;99.90;;;;;;5037076;28;20501;-83
2022/06/14 03:44:24;;;;;;;11.88;5.38;;;9.70;99.90;;;;;;5054904;28;20036;-83
2022/06/14 03:46:50;;;;;;;12.18;5.55;;;9.60;99.90;;;;;;5038203;28;20029;-84
2022/06/14 03:49:25;;;;;;;13.30;5.82;;;9.60;99.90;;;;;;5041159;28;20047;-83
2022/06/14 03:52:03;;;;;;;10.60;5.50;;;9.60;99.90;;;;;;5067857;28;20029;-83
2022/06/14 03:55:01;;;;;;;13.32;6.10;;;9.70;99.90;;;;;;5069382;28;20037;-85
2022/06/14 03:57:43;;;;;;;11.13;5.43;;;9.70;99.90;;;;;;5065280;28;20043;-85
2022/06/14 04:00:46;;;;;;;13.60;6.30;;;9.70;99.90;;;;;;5064623;28;20045;-85
2022/06/14 04:03:39;;;;;;;10.93;5.32;;;9.80;99.90;;;;;;5052442;28;20040;-87
2022/06/14 04:06:16;;;;;;;13.85;5.10;;;9.90;99.90;;;;;;5063046;28;20033;-84
2022/06/14 04:09:00;;;;;;;11.65;5.75;;;10.00;99.90;;;;;;5059212;28;20111;-83
2022/06/14 04:11:47;;;;;;;12.02;5.50;;;10.10;99.90;;;;;;5059245;28;20037;-85
2022/06/14 04:14:44;;;;;;;9.65;5.13;;;10.20;99.90;;;;;;5060324;28;20473;-85
2022/06/14 04:17:42;;;;;;;11.77;6.20;;;10.30;99.90;;;;;;5044056;28;20033;-84
2022/06/14 04:20:18;;;;;;;11.93;5.60;;;10.40;99.90;;;;;;5061700;28;20033;-84
2022/06/14 04:22:55;;;;;;;17.35;5.60;;;10.50;99.90;;;;;;5061448;28;20072;-86
2022/06/14 04:25:38;;;;;;;13.95;5.40;;;10.60;99.90;;;;;;5043952;28;20029;-84
2022/06/14 04:28:26;;;;;;;9.88;5.05;;;10.70;99.90;;;;;;5063702;28;20071;-86
2022/06/14 04:31:30;;;;;;;8.65;5.13;;;10.80;99.90;;;;;;5061013;28;20060;-84
2022/06/14 04:34:09;;;;;;;12.82;4.80;;;10.90;99.90;;;;;;5019993;28;20863;-84
2022/06/14 04:36:56;;;;;;;10.52;4.53;;;11.10;99.90;;;;;;5021253;28;20052;-87
2022/06/14 04:39:40;;;;;;;8.30;5.10;;;11.10;99.90;;;;;;5034767;28;20061;-84
2022/06/14 04:42:19;;;;;;;12.15;4.78;;;11.20;99.90;;;;;;5062923;28;20039;-86
2022/06/14 04:44:53;;;;;;;9.85;4.55;;;11.40;99.90;;;;;;5067342;28;20035;-86
2022/06/14 04:47:46;;;;;;;11.55;5.10;;;11.40;99.90;;;;;;5064344;28;20033;-85
2022/06/14 04:50:17;;;;;;;7.57;4.32;;;11.60;99.90;;;;;;5046143;28;20565;-84
2022/06/14 04:53:02;;;;;;;8.32;4.65;;;11.70;99.90;;;;;;5062556;28;20032;-86
2022/06/14 04:55:33;;;;;;;10.05;5.25;;;11.90;99.90;;;;;;5062136;28;20033;-87
2022/06/14 04:58:04;;;;;;;;;;;12.00;99.90;;;;;;5063797;28;20025;-85
2022/06/14 05:00:40;;;;;;;10.55;5.07;;;12.10;99.90;;;;;;5061524;28;19919;-85
2022/06/14 05:03:16;;;;;;;14.07;5.30;;;12.20;99.90;;;;;;5043099;28;20895;-84
2022/06/14 05:05:43;;;;;;;14.68;5.07;;;12.30;99.90;;;;;;5059477;28;20083;-84
2022/06/14 05:08:23;;;;;;;7.13;4.72;;;12.40;99.90;;;;;;5057083;28;20131;-84
2022/06/14 05:11:09;;;;;;;8.05;4.57;;;12.60;99.90;;;;;;5040947;28;20048;-84
2022/06/14 05:13:38;;;;;;;19.48;4.80;;;12.70;99.90;;;;;;5057784;28;20047;-85
2022/06/14 05:16:06;;;;;;;10.20;4.90;;;12.80;99.90;;;;;;5040434;28;20075;-84
2022/06/14 05:18:58;;;;;;;10.05;4.75;;;12.90;99.90;;;;;;5041651;28;20044;-84
2022/06/14 05:21:37;;;;;;;8.68;4.80;;;13.00;99.90;;;;;;5049357;28;20256;-84
2022/06/14 05:24:06;;;;;;;10.68;5.07;;;13.10;99.90;;;;;;5045864;28;20469;-85
2022/06/14 05:26:37;;;;;;;13.88;5.32;;;13.20;99.90;;;;;;5061494;28;20032;-84
2022/06/14 05:29:29;;;;;;;10.93;4.82;;;13.30;99.90;;;;;;5061221;28;20478;-86
2022/06/14 05:32:29;;;;;;;9.93;6.20;;;13.40;99.90;;;;;;5059519;28;20035;-85
2022/06/14 05:35:10;;;;;;;11.32;4.80;;;13.50;99.90;;;;;;5060659;28;20037;-85
2022/06/14 05:38:17;;;;;;;11.27;5.75;;;13.70;99.90;;;;;;5058770;28;20045;-85
2022/06/14 05:40:56;;;;;;;8.90;4.30;;;13.90;99.90;;;;;;5026435;28;20127;-84
2022/06/14 05:43:31;;;;;;;9.38;4.60;;;13.90;99.90;;;;;;5055842;28;20061;-83
2022/06/14 05:46:25;;;;;;;13.90;5.68;;;14.10;99.90;;;;;;5056214;28;20029;-83
2022/06/14 05:49:01;;;;;;;13.88;5.05;;;14.20;99.90;;;;;;5057113;28;20021;-84
2022/06/14 05:52:01;;;;;;;10.73;4.45;;;14.30;99.90;;;;;;5055766;28;20052;-86
2022/06/14 05:54:30;;;;;;;10.95;4.38;;;14.40;99.90;;;;;;5047352;28;20037;-83
2022/06/14 05:57:02;;;;;;;11.65;4.43;;;14.50;99.90;;;;;;5054443;28;20482;-85
2022/06/14 06:00:03;;;;;;;12.45;5.13;;;14.60;99.90;;;;;;5039232;28;20581;-85
2022/06/14 06:02:39;;;;;;;12.32;4.63;;;14.70;99.90;;;;;;4997424;28;20069;-83
2022/06/14 06:05:34;;;;;;;9.38;4.10;;;14.80;99.90;;;;;;5029949;28;20456;-84
2022/06/14 06:08:11;;;;;;;12.20;4.05;;;14.90;99.90;;;;;;5043208;28;20037;-83
2022/06/14 06:10:41;;;;;;;11.02;4.75;;;15.00;99.90;;;;;;5056712;28;20490;-83
2022/06/14 06:13:15;;;;;;;9.18;4.05;;;15.10;99.90;;;;;;5055233;28;20021;-83
2022/06/14 06:15:53;;;;;;;8.90;4.53;;;15.20;99.90;;;;;;5054166;28;20032;-84
2022/06/14 06:18:38;;;;;;;10.10;4.80;;;15.30;99.90;;;;;;5054673;28;20036;-83
2022/06/14 06:21:41;;;;;;;11.32;4.72;;;15.30;99.90;;;;;;5053980;28;20077;-83
2022/06/14 06:24:15;;;;;;;7.22;4.63;;;15.40;99.90;;;;;;5053749;28;20080;-83
2022/06/14 06:26:44;;;;;;;17.98;6.68;;;15.50;99.90;;;;;;5055255;28;20032;-84
2022/06/14 06:29:37;;;;;;;13.32;4.43;;;15.50;99.90;;;;;;5053259;28;20035;-84
2022/06/14 06:32:04;;;;;;;10.52;4.18;;;15.60;99.90;;;;;;5054237;28;20562;-84
2022/06/14 06:34:30;;;;;;;10.88;4.32;;;15.70;99.90;;;;;;5054348;28;20148;-83
2022/06/14 06:37:26;;;;;;;9.68;4.15;;;15.70;99.90;;;;;;5053663;28;20068;-84
2022/06/14 06:40:12;;;;;;;8.27;4.43;;;15.80;99.90;;;;;;5032803;28;20047;-83
2022/06/14 06:42:58;;;;;;;7.65;3.95;;;15.90;99.90;;;;;;5052989;28;20116;-84
2022/06/14 06:45:30;;;;;;;14.80;4.47;;;16.00;99.90;;;;;;5037164;28;20056;-84
2022/06/14 06:48:05;;;;;;;19.70;5.47;;;16.00;99.90;;;;;;5037511;28;20083;-83
2022/06/14 06:50:37;;;;;;;11.73;4.03;;;16.10;99.90;;;;;;5037043;28;20063;-83
2022/06/14 06:53:03;;;;;;;10.43;4.47;;;16.10;99.90;;;;;;5052329;28;20131;-83
2022/06/14 06:55:28;;;;;;;11.25;4.28;;;16.30;99.90;;;;;;5052072;28;20060;-84
2022/06/14 06:57:57;;;;;;;8.32;4.07;;;16.30;99.90;;;;;;5035848;28;20073;-85
2022/06/14 07:00:24;;;;;;;6.45;3.75;;;16.40;99.90;;;;;;5050519;28;20029;-84
2022/06/14 07:03:01;;;;;;;9.40;3.67;;;16.50;99.90;;;;;;5052048;28;20033;-83
2022/06/14 07:05:27;;;;;;;7.70;3.67;;;16.50;99.90;;;;;;5033704;28;20052;-85
2022/06/14 07:08:02;;;;;;;11.70;3.38;;;16.50;99.90;;;;;;5051801;28;20068;-83
2022/06/14 07:10:41;;;;;;;8.27;3.53;;;16.90;99.90;;;;;;5034581;28;20056;-84
2022/06/14 07:13:15;;;;;;;8.95;3.72;;;18.00;99.90;;;;;;5051949;28;20073;-85
2022/06/14 07:16:07;;;;;;;5.78;2.92;;;19.60;99.90;;;;;;5033667;28;20519;-83
2022/06/14 07:18:47;;;;;;;7.80;3.13;;;21.50;99.90;;;;;;5051520;28;20033;-82
2022/06/14 07:21:23;;;;;;;7.28;2.88;;;23.00;94.70;;;;;;5052232;28;20063;-83
2022/06/14 07:24:02;;;;;;;7.63;2.72;;;24.40;90.20;;;;;;5055366;28;20047;-85
2022/06/14 07:27:08;;;;;;;7.93;2.83;;;25.50;81.50;;;;;;5056323;28;20040;-83
2022/06/14 07:29:46;;;;;;;9.10;2.88;;;25.70;75.30;;;;;;5041417;28;20124;-83
2022/06/14 07:32:22;;;;;;;7.90;2.40;;;25.40;72.20;;;;;;5036109;28;20087;-83
2022/06/14 07:34:51;;;;;;;10.23;2.80;;;26.10;69.10;;;;;;5037076;28;20128;-83
2022/06/14 07:37:45;;;;;;;6.07;2.42;;;26.70;66.50;;;;;;5054154;28;20119;-83
2022/06/14 07:40:21;;;;;;;8.10;2.85;;;27.40;63.40;;;;;;5054584;28;20719;-83
2022/06/14 07:42:57;;;;;;;9.50;2.97;;;26.60;63.00;;;;;;5053756;28;20047;-83
2022/06/14 07:45:31;;;;;;;6.43;2.80;;;24.90;64.40;;;;;;5037729;28;20033;-83
2022/06/14 07:48:14;;;;;;;9.18;3.38;;;23.00;68.10;;;;;;5054391;28;20052;-83
2022/06/14 07:50:42;;;;;;;12.30;3.35;;;21.50;72.60;;;;;;5054074;28;20052;-83
2022/06/14 07:53:14;;;;;;;11.68;3.80;;;20.50;76.50;;;;;;5036218;28;20029;-82
2022/06/14 07:55:49;;;;;;;7.60;3.47;;;19.70;79.30;;;;;;5041422;28;20040;-84
2022/06/14 07:58:24;;;;;;;6.07;3.05;;;19.40;81.80;;;;;;5054464;28;20029;-85
2022/06/14 08:01:07;;;;;;;8.45;3.03;;;20.40;79.50;;;;;;5054857;28;20119;-82
2022/06/14 08:03:48;;;;;;;8.00;3.42;;;22.50;78.50;;;;;;5053353;28;20025;-84
2022/06/14 08:06:19;;;;;;;8.18;2.95;;;24.20;70.40;;;;;;5058720;28;20096;-84
2022/06/14 08:08:49;;;;;;;7.85;3.13;;;25.00;68.10;;;;;;5064187;28;20025;-85
2022/06/14 08:11:22;;;;;;;5.53;3.08;;;25.70;65.30;;;;;;5057449;28;20025;-83
2022/06/14 08:14:02;;;;;;;10.70;3.20;;;26.20;65.20;;;;;;5055277;28;20040;-84
2022/06/14 08:16:28;;;;;;;6.55;2.70;;;27.60;63.70;;;;;;5058208;28;20025;-85
2022/06/14 08:19:05;;;;;;;6.85;3.03;;;28.10;59.90;;;;;;5039755;28;20029;-82
2022/06/14 08:21:40;;;;;;;15.00;3.05;;;28.60;59.40;;;;;;5056445;28;20096;-85
2022/06/14 08:24:13;;;;;;;7.47;3.17;;;29.10;57.00;;;;;;5039344;28;20025;-85
2022/06/14 08:26:48;;;;;;;;;;;29.20;57.00;;;;;;5039529;28;20699;-83
2022/06/14 08:29:48;;;;;;;11.98;3.08;;;29.50;56.70;;;;;;5053406;28;19913;-85
2022/06/14 08:32:37;;;;;;;5.93;3.10;;;29.20;56.60;;;;;;5054910;28;20041;-86
2022/06/14 08:35:12;;;;;;;5.13;2.78;;;29.10;55.60;;;;;;5053102;28;20041;-83
2022/06/14 08:37:53;;;;;;;6.28;2.88;;;29.40;54.70;;;;;;5036876;28;20036;-84
2022/06/14 08:40:37;;;;;;;6.75;2.85;;;29.60;54.30;;;;;;5053715;28;20037;-83
2022/06/14 08:43:11;;;;;;;8.13;3.05;;;29.50;53.50;;;;;;5053367;28;20036;-84
2022/06/14 08:46:11;;;;;;;5.25;2.72;;;29.30;54.00;;;;;;5037004;28;20157;-87
2022/06/14 08:48:51;;;;;;;11.73;3.28;;;29.90;53.20;;;;;;5036931;28;20032;-86
2022/06/14 08:51:36;;;;;;;6.90;2.95;;;30.00;53.20;;;;;;5052972;28;20028;-82
2022/06/14 08:54:15;;;;;;;5.50;2.72;;;29.80;53.30;;;;;;5052884;28;20033;-84
2022/06/14 08:56:54;;;;;;;7.18;2.90;;;29.30;53.00;;;;;;5036049;28;20453;-84
2022/06/14 08:59:23;;;;;;;7.93;3.13;;;29.10;54.60;;;;;;5054249;28;20420;-84
2022/06/14 09:02:19;;;;;;;4.85;2.92;;;28.60;53.50;;;;;;5053779;28;20059;-84
2022/06/14 09:05:22;;;;;;;8.88;2.80;;;28.10;54.30;;;;;;5035127;28;20033;-83
2022/06/14 09:08:03;;;;;;;8.77;3.10;;;28.10;55.00;;;;;;5052550;28;20033;-84
2022/06/14 09:10:32;;;;;;;;;;;28.50;55.80;;;;;;5052598;28;20029;-84
2022/06/14 09:13:06;;;;;;;8.95;2.97;;;28.30;54.40;;;;;;5053849;28;20380;-86
2022/06/14 09:16:10;;;;;;;8.00;3.40;;;28.70;54.90;;;;;;5036067;28;20123;-84
2022/06/14 09:18:49;;;;;;;7.47;2.58;;;29.30;53.70;;;;;;5052774;28;20028;-83
2022/06/14 09:21:41;;;;;;;8.05;3.00;;;29.20;52.40;;;;;;5054098;28;20038;-84
2022/06/14 09:25:01;;;;;;;11.43;3.53;;;29.60;51.80;;;;;;5052346;28;20029;-82
2022/06/14 09:28:04;;;;;;;8.88;2.90;;;30.10;51.00;;;;;;4984000;28;20026;-87
2022/06/14 09:31:00;;;;;;;8.18;2.88;;;30.30;51.00;;;;;;5071524;28;20059;-87
2022/06/14 09:33:55;;;;;;;19.90;10.57;;;30.30;50.90;;;;;;5040400;28;20044;-84
2022/06/14 09:36:33;;;;;;;9.60;3.28;;;29.80;51.50;;;;;;5037446;28;20071;-84
2022/06/14 09:39:29;;;;;;;8.68;3.10;;;29.70;51.40;;;;;;5064004;28;20397;-83
2022/06/14 09:42:17;;;;;;;7.35;2.63;;;30.30;51.40;;;;;;5044361;28;20028;-86
2022/06/14 09:45:20;;;;;;;21.90;4.18;;;30.50;50.00;;;;;;5057328;28;20029;-84
2022/06/14 09:48:16;;;;;;;6.90;3.10;;;30.10;50.00;;;;;;5039505;28;20024;-84
2022/06/14 09:51:20;;;;;;;8.25;3.38;;;30.00;50.20;;;;;;5053779;28;20658;-83
2022/06/14 09:54:00;;;;;;;4.45;2.50;;;29.40;50.20;;;;;;5053845;28;20033;-83
2022/06/14 09:56:26;;;;;;;;;;;29.80;50.20;;;;;;5037295;28;20720;-82
2022/06/14 09:59:22;;;;;;;7.45;2.88;;;29.90;50.10;;;;;;5054834;28;19912;-84
2022/06/14 10:02:16;;;;;;;10.23;3.08;;;30.00;49.70;;;;;;5039986;28;20398;-83
2022/06/14 10:05:04;;;;;;;8.30;2.95;;;29.80;49.80;;;;;;5063128;28;20032;-89
2022/06/14 10:07:58;;;;;;;5.40;2.60;;;29.60;50.60;;;;;;5074638;28;20104;-87
2022/06/14 10:10:44;;;;;;;9.73;3.17;;;29.10;51.00;;;;;;5074660;28;20020;-85
2022/06/14 10:13:48;;;;;;;6.60;3.13;;;28.60;51.20;;;;;;5065530;28;20063;-83
2022/06/14 10:16:34;;;;;;;11.15;3.30;;;28.30;51.50;;;;;;5039239;28;20438;-83
2022/06/14 10:19:18;;;;;;;5.68;3.17;;;28.10;51.50;;;;;;5039607;28;20028;-85
2022/06/14 10:22:16;;;;;;;8.05;3.08;;;27.60;53.70;;;;;;5054796;28;20029;-83
2022/06/14 10:25:22;;;;;;;10.00;3.25;;;27.40;52.40;;;;;;5048142;28;20041;-84
2022/06/14 10:28:12;;;;;;;8.15;3.03;;;26.90;52.80;;;;;;5037080;28;20029;-83
2022/06/14 10:31:06;;;;;;;6.97;3.45;;;26.80;52.80;;;;;;5037128;28;20035;-84
2022/06/14 10:33:36;;;;;;;8.10;3.08;;;26.50;54.20;;;;;;5036922;28;20036;-85
2022/06/14 10:36:33;;;;;;;9.80;3.33;;;26.00;54.90;;;;;;5035670;28;20660;-83
2022/06/14 10:39:24;;;;;;;6.80;2.60;;;26.20;54.10;;;;;;5053046;28;20041;-83
2022/06/14 10:42:28;;;;;;;7.78;2.78;;;26.30;54.50;;;;;;5036401;28;20092;-83
2022/06/14 10:45:02;;;;;;;8.00;3.10;;;26.60;53.60;;;;;;5065192;28;20017;-87
2022/06/14 10:47:39;;;;;;;6.07;3.15;;;26.60;55.00;;;;;;5036687;28;20048;-83
2022/06/14 10:50:30;;;;;;;6.90;2.72;;;27.00;53.40;;;;;;5036840;28;20505;-83
2022/06/14 10:53:32;;;;;;;13.30;4.72;;;26.70;54.00;;;;;;5034965;28;20131;-84
2022/06/14 10:56:09;;;;;;;7.38;3.25;;;26.30;54.80;;;;;;5037576;28;20523;-82
2022/06/14 10:59:12;;;;;;;7.10;2.92;;;25.70;53.80;;;;;;5053757;28;20033;-83
2022/06/14 11:01:52;;;;;;;7.32;3.25;;;25.80;54.60;;;;;;5052600;28;20445;-84
2022/06/14 11:04:33;;;;;;;5.65;2.70;;;25.90;53.40;;;;;;5052044;28;20056;-82
2022/06/14 11:07:02;;;;;;;;;;;26.00;53.80;;;;;;5034399;28;20025;-82
2022/06/14 11:09:53;;;;;;;9.30;3.08;;;26.10;53.70;;;;;;5052189;28;19966;-83
2022/06/14 11:12:28;;;;;;;10.20;3.75;;;26.70;53.80;;;;;;5058822;28;20033;-82
2022/06/14 11:15:03;;;;;;;5.78;2.97;;;26.70;53.20;;;;;;5053342;28;20040;-83
2022/06/14 11:17:39;;;;;;;7.97;3.05;;;26.90;53.50;;;;;;5036589;28;20033;-82
2022/06/14 11:20:28;;;;;;;10.77;2.92;;;27.00;53.30;;;;;;5036741;28;20104;-82
2022/06/14 11:23:22;;;;;;;6.60;3.00;;;26.50;53.40;;;;;;5044936;28;20139;-85
2022/06/14 11:25:53;;;;;;;9.07;3.20;;;26.20;55.50;;;;;;5035992;28;20029;-84
2022/06/14 11:28:40;;;;;;;9.48;3.20;;;26.50;53.00;;;;;;5035478;28;20028;-84
2022/06/14 11:31:37;;;;;;;5.22;2.67;;;26.10;54.00;;;;;;5052470;28;20033;-83
2022/06/14 11:34:09;;;;;;;10.35;2.97;;;26.20;55.60;;;;;;5050924;28;20116;-83
2022/06/14 11:37:27;;;;;;;7.07;2.83;;;26.60;54.80;;;;;;5050220;28;20029;-83
2022/06/14 11:39:59;;;;;;;6.13;3.20;;;27.00;52.80;;;;;;4994131;28;20034;-83
2022/06/14 11:42:27;;;;;;;10.07;3.40;;;27.30;53.50;;;;;;5049328;28;20045;-81
2022/06/14 11:45:12;;;;;;;6.05;3.20;;;27.40;54.40;;;;;;5033994;28;20044;-83
2022/06/14 11:48:34;;;;;;;6.10;3.13;;;27.00;53.80;;;;;;5051180;28;20044;-84
2022/06/14 11:51:13;;;;;;;8.18;3.30;;;26.60;55.50;;;;;;4993594;28;20038;-81
2022/06/14 11:54:06;;;;;;;10.95;3.63;;;26.40;54.90;;;;;;4993916;28;20056;-82
2022/06/14 11:57:02;;;;;;;10.73;3.35;;;25.80;55.20;;;;;;5026169;28;20452;-82
2022/06/14 12:00:18;;;;;;;7.85;3.05;;;26.00;55.40;;;;;;5052960;28;20036;-82
2022/06/14 12:02:46;;;;;;;7.43;3.15;;;26.30;53.90;;;;;;4982559;28;20042;-83
2022/06/14 12:05:24;;;;;;;15.77;3.55;;;26.50;55.40;;;;;;5051128;28;20079;-84
2022/06/14 12:08:06;;;;;;;8.48;3.50;;;26.10;54.00;;;;;;5035851;28;20032;-85
2022/06/14 12:10:49;;;;;;;5.97;3.20;;;25.40;54.80;;;;;;5036672;28;20029;-83
2022/06/14 12:13:34;;;;;;;7.35;3.30;;;25.20;56.10;;;;;;5037920;28;20041;-83
2022/06/14 12:16:16;;;;;;;5.28;3.17;;;25.60;55.20;;;;;;5053018;28;20041;-82
2022/06/14 12:18:56;;;;;;;6.50;3.90;;;26.10;54.70;;;;;;5054400;28;20036;-83
2022/06/14 12:21:57;;;;;;;8.48;3.42;;;26.70;54.90;;;;;;5037954;28;20466;-82
2022/06/14 12:26:34;;;;;;;8.00;3.03;;;27.50;53.90;;;;;;5037297;28;20025;-85
2022/06/14 12:27:19;;;;;;;9.82;3.35;;;27.20;54.30;;;;;;5052957;28;20094;-82
2022/06/14 12:29:50;;;;;;;10.32;3.17;;;27.70;53.20;;;;;;5052832;28;20032;-83
2022/06/14 12:32:35;;;;;;;6.65;2.90;;;28.10;52.40;;;;;;5037038;28;20124;-83
2022/06/14 12:35:07;;;;;;;6.45;3.20;;;28.00;52.30;;;;;;5036702;28;20029;-82
2022/06/14 12:37:48;;;;;;;6.43;3.15;;;28.20;53.40;;;;;;5054502;28;20087;-84
2022/06/14 12:40:37;;;;;;;5.22;2.70;;;28.30;51.70;;;;;;5035604;28;20029;-83
2022/06/14 12:43:24;;;;;;;6.15;2.60;;;27.30;51.70;;;;;;5036262;28;20041;-83
2022/06/14 12:45:50;;;;;;;6.28;2.83;;;28.20;52.50;;;;;;5055136;28;20564;-83
2022/06/14 12:48:39;;;;;;;6.60;2.50;;;29.00;53.20;;;;;;5054649;28;20064;-82
2022/06/14 12:51:19;;;;;;;8.75;3.03;;;29.70;50.70;;;;;;5052953;28;20025;-85
2022/06/14 12:54:12;;;;;;;5.43;3.17;;;29.80;50.80;;;;;;5036376;28;20048;-83
2022/06/14 12:56:53;;;;;;;5.45;3.00;;;29.60;52.00;;;;;;5053324;28;20320;-82
2022/06/14 12:59:33;;;;;;;6.05;2.88;;;29.50;49.60;;;;;;5017446;28;20041;-83
2022/06/14 13:02:24;;;;;;;5.90;2.70;;;29.80;50.60;;;;;;5018991;28;20057;-83
2022/06/14 13:05:12;;;;;;;8.57;2.88;;;29.60;49.20;;;;;;5034209;28;20029;-83
2022/06/14 13:07:44;;;;;;;6.32;3.00;;;29.40;48.50;;;;;;5033162;28;20083;-82
2022/06/14 13:10:22;;;;;;;8.30;3.25;;;29.00;49.30;;;;;;5014866;28;20029;-82
2022/06/14 13:13:03;;;;;;;11.13;2.80;;;29.30;49.90;;;;;;5031854;28;20406;-83
2022/06/14 13:15:57;;;;;;;8.13;3.05;;;29.20;49.00;;;;;;5016781;28;20029;-84
2022/06/14 13:18:42;;;;;;;10.07;2.85;;;29.10;48.90;;;;;;5032980;28;20037;-84
2022/06/14 13:21:35;;;;;;;6.32;3.25;;;28.80;49.20;;;;;;5023350;28;20049;-85
2022/06/14 13:24:24;;;;;;;3.88;2.83;;;29.10;49.30;;;;;;5032810;28;20033;-84
2022/06/14 13:27:22;;;;;;;9.00;3.10;;;28.90;50.00;;;;;;5034363;28;20099;-83
2022/06/14 13:29:54;;;;;;;6.80;2.47;;;29.20;49.00;;;;;;5015301;28;20482;-83
2022/06/14 13:33:02;;;;;;;7.95;2.83;;;29.30;48.70;;;;;;5015380;28;20033;-83
2022/06/14 13:35:52;;;;;;;11.38;2.80;;;28.60;48.80;;;;;;5032518;28;20037;-83
2022/06/14 13:38:29;;;;;;;6.40;2.45;;;28.60;48.70;;;;;;5033305;28;20041;-84
2022/06/14 13:41:13;;;;;;;9.00;2.88;;;28.70;51.00;;;;;;5016993;28;20140;-84
2022/06/14 13:43:50;;;;;;;5.07;2.60;;;29.60;48.30;;;;;;5031515;28;20091;-83
2022/06/14 13:46:34;;;;;;;5.60;2.78;;;29.40;49.50;;;;;;5015607;28;20034;-85
2022/06/14 13:49:06;;;;;;;8.05;2.58;;;29.60;47.60;;;;;;5031789;28;20036;-84
2022/06/14 13:51:38;;;;;;;5.30;2.60;;;30.60;47.90;;;;;;5032349;28;20037;-84
2022/06/14 13:54:25;;;;;;;6.47;2.97;;;30.40;46.50;;;;;;5040938;28;20038;-84
2022/06/14 13:57:30;;;;;;;8.32;2.45;;;30.50;47.30;;;;;;5036678;28;20087;-84
2022/06/14 14:00:30;;;;;;;7.40;2.67;;;30.90;47.20;;;;;;5033958;28;20060;-84
2022/06/14 14:03:01;;;;;;;14.25;2.92;;;30.00;45.80;;;;;;5014526;28;20062;-86
2022/06/14 14:05:43;;;;;;;4.32;2.58;;;29.60;46.20;;;;;;5015277;28;20482;-84